首页
METAR-TAF:

METAR-TAF

机场 :

拉彭兰塔机场

拉彭兰塔, 芬兰

纬度: 61-02-45N, 经度: 028-08-55E, 海拔: 106米

当前天气观测

该预报发布于15分钟前的05:50 UTC
风速11节,风向西南
温度 1°C
湿度 80%
气压 975 hPa
能见度10公里或以上
多云层高于2100英尺

METAR: EFLP 230550Z AUTO 23011KT 9999 BKN021 01/M02 Q0975

时间: 08:05 (06:05 UTC)

预报

该预报发布于9小时和39分钟前的20:26 UTC
预报有效从22日的 21点(UTC)到 22日的 23点(UTC)
风速14节,风向,有时为24节阵风
能見度: 8000
阴天层高于600英尺
小雨
短暂存在
从 22日的 21点(UTC)到 22日的 23点(UTC)
能見度: 7000
多云层高于300英尺

TAF: EFLP 222026Z 2221/2223 18014G24KT 8000 -RA OVC006 TEMPO 2221/2223 7000 BKN003

超过4000个机场的气象观测和天气预报(METAR&TAF报告)。

可查询的气象台以黄色和红色小点在地图上表示。

将鼠标移到小点上方,可查看气象台名称。

然后点击查看天气观测和预报。

如需切换地图:点击带黑十字的绿色按钮放大地图;点击带横线的绿色按钮缩小地图;或者点击绿色箭头查看邻近地区的地图。


METAR-TAF: